Time;durP1;ratioP1;P1;durP2;ratioP2;P2;SDS_P1;SDS_P2;PMS_P1;PMS_P2;Temp;Humidity;BMP_temperature;BMP_pressure;BME280_temperature;BME280_humidity;BME280_pressure;Samples;Min_cycle;Max_cycle;Signal;HPM_P1;HPM_P2
2023/04/19 00:02:34;;;;;;;16.42;8.65;;;;;;;;;;6280628;28;20041;-80
2023/04/19 00:05:37;;;;;;;16.85;9.38;;;;;;;;;;6285709;28;20038;-78
2023/04/19 00:08:38;;;;;;;17.02;8.82;;;;;;;;;;6282255;28;20068;-77
2023/04/19 00:11:40;;;;;;;15.82;9.05;;;;;;;;;;6261706;28;20047;-79
2023/04/19 00:14:42;;;;;;;15.38;8.98;;;;;;;;;;6254939;28;20475;-80
2023/04/19 00:17:43;;;;;;;17.55;9.32;;;;;;;;;;6244923;28;20041;-80
2023/04/19 00:20:45;;;;;;;15.80;9.27;;;;;;;;;;6243148;28;20050;-79
2023/04/19 00:23:47;;;;;;;17.98;9.10;;;;;;;;;;6238946;28;20053;-80
2023/04/19 00:26:48;;;;;;;15.13;8.60;;;;;;;;;;6241720;28;20037;-80
2023/04/19 00:29:50;;;;;;;16.80;9.43;;;;;;;;;;6241903;28;20049;-80
2023/04/19 00:32:52;;;;;;;17.70;9.70;;;;;;;;;;6239581;28;20140;-79
2023/04/19 00:35:53;;;;;;;14.45;9.40;;;;;;;;;;6234044;28;20056;-80
2023/04/19 00:38:55;;;;;;;17.90;9.27;;;;;;;;;;6239912;28;20041;-80
2023/04/19 00:41:57;;;;;;;14.68;8.90;;;;;;;;;;6238656;28;20398;-80
2023/04/19 00:44:59;;;;;;;15.25;8.40;;;;;;;;;;6256009;28;20045;-80
2023/04/19 00:48:00;;;;;;;15.98;9.32;;;;;;;;;;6238444;28;20061;-80
2023/04/19 00:51:03;;;;;;;14.40;8.27;;;;;;;;;;6234877;28;20467;-80
2023/04/19 00:54:06;;;;;;;13.93;8.73;;;;;;;;;;6253882;28;20095;-80
2023/04/19 00:57:08;;;;;;;13.13;8.73;;;;;;;;;;6240400;28;20042;-80
2023/04/19 01:00:10;;;;;;;13.60;8.55;;;;;;;;;;6239155;28;20143;-80
2023/04/19 01:03:12;;;;;;;17.33;8.55;;;;;;;;;;6236804;28;20056;-79
2023/04/19 01:06:14;;;;;;;16.52;8.98;;;;;;;;;;6238659;28;20049;-79
2023/04/19 01:09:16;;;;;;;15.02;8.45;;;;;;;;;;6238525;28;20065;-80
2023/04/19 01:12:17;;;;;;;15.48;9.30;;;;;;;;;;6249255;28;20108;-80
2023/04/19 01:15:19;;;;;;;16.27;9.65;;;;;;;;;;6237624;28;20041;-80
2023/04/19 01:18:24;;;;;;;15.32;9.75;;;;;;;;;;6238900;28;20377;-80
2023/04/19 01:21:28;;;;;;;14.98;8.88;;;;;;;;;;6239224;28;20055;-80
2023/04/19 01:24:30;;;;;;;15.75;9.30;;;;;;;;;;6254574;28;20120;-80
2023/04/19 01:27:32;;;;;;;15.07;8.95;;;;;;;;;;6253695;28;20051;-80
2023/04/19 01:30:34;;;;;;;17.42;10.10;;;;;;;;;;6234130;28;20064;-79
2023/04/19 01:33:36;;;;;;;17.00;10.00;;;;;;;;;;6223473;28;20038;-80
2023/04/19 01:36:37;;;;;;;16.25;9.10;;;;;;;;;;6217694;28;20051;-80
2023/04/19 01:39:39;;;;;;;17.13;8.52;;;;;;;;;;6231041;28;20072;-81
2023/04/19 01:42:41;;;;;;;16.48;9.00;;;;;;;;;;6251521;28;20389;-79
2023/04/19 01:45:43;;;;;;;16.45;9.05;;;;;;;;;;6252726;28;20568;-80
2023/04/19 01:48:45;;;;;;;13.50;8.80;;;;;;;;;;6235302;28;20044;-80
2023/04/19 01:51:47;;;;;;;17.58;9.00;;;;;;;;;;6234137;28;20049;-79
2023/04/19 01:54:50;;;;;;;14.82;8.55;;;;;;;;;;6235672;28;20048;-80
2023/04/19 01:57:53;;;;;;;16.63;9.90;;;;;;;;;;6236873;28;20253;-79
2023/04/19 02:00:55;;;;;;;15.25;8.43;;;;;;;;;;6220022;28;20210;-80
2023/04/19 02:03:57;;;;;;;13.07;8.00;;;;;;;;;;6235214;28;20038;-79
2023/04/19 02:06:59;;;;;;;19.05;9.10;;;;;;;;;;6219260;28;20507;-80
2023/04/19 02:10:04;;;;;;;14.50;8.57;;;;;;;;;;6234790;28;20393;-80
2023/04/19 02:13:06;;;;;;;14.43;8.73;;;;;;;;;;6224131;28;20053;-80
2023/04/19 02:16:09;;;;;;;15.27;8.70;;;;;;;;;;6257335;28;20045;-81
2023/04/19 02:19:11;;;;;;;15.68;9.00;;;;;;;;;;6232990;28;20057;-81
2023/04/19 02:22:12;;;;;;;14.48;9.27;;;;;;;;;;6251899;28;20050;-80
2023/04/19 02:25:18;;;;;;;15.55;9.15;;;;;;;;;;6235488;28;20104;-79
2023/04/19 02:28:20;;;;;;;16.00;9.25;;;;;;;;;;6237625;28;20536;-80
2023/04/19 02:31:22;;;;;;;18.92;10.15;;;;;;;;;;6250049;28;20715;-80
2023/04/19 02:34:24;;;;;;;18.33;10.30;;;;;;;;;;6234565;28;20065;-80
2023/04/19 02:37:26;;;;;;;17.90;9.98;;;;;;;;;;6229206;28;20043;-80
2023/04/19 02:40:30;;;;;;;18.20;10.45;;;;;;;;;;6236490;28;20049;-80
2023/04/19 02:43:32;;;;;;;17.25;9.75;;;;;;;;;;6235964;28;20070;-80
2023/04/19 02:46:34;;;;;;;18.77;10.18;;;;;;;;;;6249215;28;20552;-79
2023/04/19 02:49:40;;;;;;;17.55;10.20;;;;;;;;;;6252594;28;20045;-80
2023/04/19 02:52:42;;;;;;;17.77;10.68;;;;;;;;;;6250194;28;20064;-81
2023/04/19 02:55:44;;;;;;;19.05;10.57;;;;;;;;;;6234945;28;20127;-80
2023/04/19 02:58:53;;;;;;;18.08;10.57;;;;;;;;;;6233939;28;20045;-81
2023/04/19 03:01:55;;;;;;;21.55;11.10;;;;;;;;;;6235457;28;20527;-80
2023/04/19 03:04:58;;;;;;;17.95;10.60;;;;;;;;;;6225430;28;20175;-79
2023/04/19 03:08:00;;;;;;;17.35;10.52;;;;;;;;;;6236207;28;20085;-80
2023/04/19 03:11:02;;;;;;;18.70;10.23;;;;;;;;;;6251907;28;20045;-80
2023/04/19 03:14:04;;;;;;;21.17;10.75;;;;;;;;;;6237582;28;20057;-80
2023/04/19 03:17:06;;;;;;;20.80;11.27;;;;;;;;;;6219604;28;20282;-81
2023/04/19 03:20:10;;;;;;;19.63;11.43;;;;;;;;;;6230748;28;20136;-80
2023/04/19 03:23:13;;;;;;;17.70;10.32;;;;;;;;;;6234169;28;20068;-80
2023/04/19 03:26:14;;;;;;;18.30;10.32;;;;;;;;;;6234413;28;20050;-81
2023/04/19 03:29:19;;;;;;;19.95;11.00;;;;;;;;;;6237249;28;20045;-81
2023/04/19 03:32:27;;;;;;;21.13;10.45;;;;;;;;;;6231981;28;20056;-80
2023/04/19 03:35:31;;;;;;;21.35;10.40;;;;;;;;;;6238497;28;20137;-80
2023/04/19 03:38:40;;;;;;;17.75;10.52;;;;;;;;;;6229572;28;20595;-80
2023/04/19 03:41:46;;;;;;;19.42;10.95;;;;;;;;;;6250278;28;20064;-80
2023/04/19 03:45:06;;;;;;;17.27;9.73;;;;;;;;;;6236480;28;20038;-80
2023/04/19 03:48:13;;;;;;;18.13;9.93;;;;;;;;;;6236783;28;20048;-81
2023/04/19 03:51:15;;;;;;;19.63;10.02;;;;;;;;;;6232022;28;20045;-80
2023/04/19 03:54:18;;;;;;;21.15;10.40;;;;;;;;;;6232189;28;20132;-81
2023/04/19 03:57:21;;;;;;;17.20;10.40;;;;;;;;;;6235280;28;20096;-80
2023/04/19 04:00:23;;;;;;;16.83;10.35;;;;;;;;;;6213779;28;20404;-80
2023/04/19 04:03:30;;;;;;;17.42;9.85;;;;;;;;;;6249466;28;20046;-79
2023/04/19 04:06:32;;;;;;;17.10;9.98;;;;;;;;;;6232356;28;20070;-80
2023/04/19 04:09:34;;;;;;;18.15;9.98;;;;;;;;;;6232560;28;20053;-80
2023/04/19 04:12:38;;;;;;;15.20;9.00;;;;;;;;;;6223991;28;20052;-80
2023/04/19 04:15:42;;;;;;;14.77;9.38;;;;;;;;;;6233100;28;20849;-81
2023/04/19 04:18:46;;;;;;;16.33;8.50;;;;;;;;;;6233696;28;20049;-80
2023/04/19 04:21:49;;;;;;;17.17;9.05;;;;;;;;;;6232293;28;20057;-80
2023/04/19 04:24:52;;;;;;;14.70;8.47;;;;;;;;;;6233139;28;20044;-80
2023/04/19 04:28:01;;;;;;;15.73;8.63;;;;;;;;;;6230635;28;20049;-80
2023/04/19 04:31:04;;;;;;;17.15;8.95;;;;;;;;;;6247021;28;20068;-80
2023/04/19 04:34:08;;;;;;;14.40;8.13;;;;;;;;;;6219412;28;20923;-80
2023/04/19 04:37:18;;;;;;;14.43;7.70;;;;;;;;;;6233493;28;20136;-80
2023/04/19 04:40:21;;;;;;;13.52;7.70;;;;;;;;;;6239054;28;20050;-81
2023/04/19 04:43:24;;;;;;;14.45;7.70;;;;;;;;;;6234637;28;20391;-80
2023/04/19 04:46:26;;;;;;;13.98;7.30;;;;;;;;;;6252968;28;20516;-80
2023/04/19 04:49:29;;;;;;;10.40;6.63;;;;;;;;;;6237640;28;20037;-78
2023/04/19 04:52:32;;;;;;;12.73;7.53;;;;;;;;;;6253604;28;20207;-78
2023/04/19 04:55:46;;;;;;;11.82;6.40;;;;;;;;;;6251225;28;20407;-79
2023/04/19 04:58:48;;;;;;;11.40;7.20;;;;;;;;;;6229293;28;20041;-79
2023/04/19 05:01:59;;;;;;;12.27;7.13;;;;;;;;;;6235513;28;20044;-79
2023/04/19 05:05:02;;;;;;;11.47;5.93;;;;;;;;;;6236360;28;20056;-79
2023/04/19 05:08:04;;;;;;;10.33;6.30;;;;;;;;;;6240189;28;20126;-80
2023/04/19 05:11:06;;;;;;;9.52;5.78;;;;;;;;;;6251279;28;20096;-81
2023/04/19 05:14:08;;;;;;;10.68;5.82;;;;;;;;;;6239590;28;20048;-80
2023/04/19 05:17:09;;;;;;;11.48;6.20;;;;;;;;;;6252796;28;20049;-80
2023/04/19 05:20:11;;;;;;;9.13;5.65;;;;;;;;;;6253164;28;20049;-79
2023/04/19 05:23:14;;;;;;;10.00;6.07;;;;;;;;;;6240508;28;20042;-78
2023/04/19 05:26:18;;;;;;;10.25;5.43;;;;;;;;;;6236876;28;20048;-79
2023/04/19 05:29:22;;;;;;;12.48;5.43;;;;;;;;;;6231419;28;20061;-78
2023/04/19 05:32:28;;;;;;;8.52;4.88;;;;;;;;;;6231728;28;20061;-79
2023/04/19 05:35:32;;;;;;;10.57;4.85;;;;;;;;;;6232843;28;20045;-79
2023/04/19 05:38:35;;;;;;;8.83;4.77;;;;;;;;;;6248292;28;20400;-79
2023/04/19 05:41:37;;;;;;;7.78;4.30;;;;;;;;;;6232653;28;20053;-79
2023/04/19 05:44:39;;;;;;;6.17;4.73;;;;;;;;;;6212786;28;20048;-79
2023/04/19 05:47:42;;;;;;;7.53;4.25;;;;;;;;;;6249032;28;20086;-80
2023/04/19 05:50:59;;;;;;;8.23;4.47;;;;;;;;;;6230871;28;20040;-78
2023/04/19 05:54:23;;;;;;;8.02;4.65;;;;;;;;;;6231881;28;20507;-79
2023/04/19 05:57:28;;;;;;;10.20;4.88;;;;;;;;;;6232963;28;20044;-79
2023/04/19 06:00:30;;;;;;;7.82;4.43;;;;;;;;;;6233948;28;20453;-79
2023/04/19 06:03:41;;;;;;;7.00;3.83;;;;;;;;;;6250228;28;20588;-80
2023/04/19 06:06:43;;;;;;;7.32;4.22;;;;;;;;;;6249975;28;20121;-78
2023/04/19 06:09:48;;;;;;;9.38;4.50;;;;;;;;;;6236626;28;20710;-79
2023/04/19 06:12:50;;;;;;;7.82;4.05;;;;;;;;;;6235737;28;20045;-80
2023/04/19 06:15:51;;;;;;;6.68;4.20;;;;;;;;;;6231619;28;20044;-79
2023/04/19 06:18:53;;;;;;;7.32;5.03;;;;;;;;;;6219476;28;20045;-79
2023/04/19 06:21:55;;;;;;;5.95;3.75;;;;;;;;;;6214890;28;20053;-79
2023/04/19 06:24:56;;;;;;;9.27;4.35;;;;;;;;;;6234462;28;20038;-79
2023/04/19 06:27:58;;;;;;;5.50;3.80;;;;;;;;;;6261561;28;20060;-79
2023/04/19 06:31:01;;;;;;;5.47;3.65;;;;;;;;;;6239785;28;20113;-79
2023/04/19 06:34:03;;;;;;;6.68;4.03;;;;;;;;;;6234412;28;20041;-81
2023/04/19 06:37:05;;;;;;;7.75;4.20;;;;;;;;;;6187326;28;20446;-80
2023/04/19 06:40:08;;;;;;;7.85;3.88;;;;;;;;;;6234272;28;20081;-78
2023/04/19 06:43:10;;;;;;;7.80;4.05;;;;;;;;;;6239798;28;20155;-79
2023/04/19 06:46:13;;;;;;;7.03;4.72;;;;;;;;;;6233184;28;20049;-77
2023/04/19 06:49:14;;;;;;;;;;;;;;;;;;6249796;28;20102;-78
2023/04/19 06:52:16;;;;;;;6.22;3.80;;;;;;;;;;6245478;28;20018;-79
2023/04/19 06:55:18;;;;;;;6.53;3.88;;;;;;;;;;6208575;28;20174;-78
2023/04/19 06:58:20;;;;;;;6.93;4.05;;;;;;;;;;6207113;28;20405;-80
2023/04/19 07:01:21;;;;;;;6.05;3.80;;;;;;;;;;6205284;28;20057;-77
2023/04/19 07:04:25;;;;;;;6.40;4.20;;;;;;;;;;6209277;28;20061;-78
2023/04/19 07:07:27;;;;;;;5.57;3.80;;;;;;;;;;6208302;28;20046;-79
2023/04/19 07:10:29;;;;;;;6.05;4.10;;;;;;;;;;6215536;28;20041;-79
2023/04/19 07:13:30;;;;;;;6.82;4.07;;;;;;;;;;6207949;28;20038;-78
2023/04/19 07:16:32;;;;;;;6.68;3.65;;;;;;;;;;6219634;28;20471;-77
2023/04/19 07:19:35;;;;;;;7.05;4.45;;;;;;;;;;6211895;28;20042;-78
2023/04/19 07:22:36;;;;;;;6.73;3.83;;;;;;;;;;6208207;28;20077;-77
2023/04/19 07:25:38;;;;;;;6.72;4.18;;;;;;;;;;6208851;28;20164;-78
2023/04/19 07:28:40;;;;;;;8.40;4.03;;;;;;;;;;6208518;28;20137;-77
2023/04/19 07:31:41;;;;;;;7.95;4.28;;;;;;;;;;6230139;28;20419;-79
2023/04/19 07:34:44;;;;;;;9.40;4.68;;;;;;;;;;6236616;28;20033;-79
2023/04/19 07:37:46;;;;;;;9.70;5.47;;;;;;;;;;6234685;28;20456;-79
2023/04/19 07:40:47;;;;;;;7.30;4.20;;;;;;;;;;6230619;28;20045;-80
2023/04/19 07:43:49;;;;;;;8.18;4.53;;;;;;;;;;6257536;28;20045;-80
2023/04/19 07:46:51;;;;;;;11.38;4.68;;;;;;;;;;6236648;28;20099;-79
2023/04/19 07:49:54;;;;;;;6.17;4.40;;;;;;;;;;6239100;28;20502;-80
2023/04/19 07:52:56;;;;;;;8.25;4.32;;;;;;;;;;6238967;28;20110;-81
2023/04/19 07:55:58;;;;;;;7.55;4.57;;;;;;;;;;6233875;28;20045;-80
2023/04/19 07:59:00;;;;;;;6.40;4.38;;;;;;;;;;6232622;28;20068;-79
2023/04/19 08:02:09;;;;;;;9.05;4.20;;;;;;;;;;6240728;28;20499;-80
2023/04/19 08:05:12;;;;;;;6.07;3.95;;;;;;;;;;6239801;28;20053;-80
2023/04/19 08:08:14;;;;;;;7.13;4.05;;;;;;;;;;6233549;28;20060;-80
2023/04/19 08:11:15;;;;;;;6.85;4.45;;;;;;;;;;6240030;28;20128;-80
2023/04/19 08:14:17;;;;;;;6.90;4.22;;;;;;;;;;6240353;28;20191;-78
2023/04/19 08:17:40;;;;;;;6.88;4.22;;;;;;;;;;6258664;28;20106;-78
2023/04/19 08:20:45;;;;;;;7.32;4.93;;;;;;;;;;6252649;28;20150;-80
2023/04/19 08:23:47;;;;;;;8.05;4.22;;;;;;;;;;6241004;28;20499;-80
2023/04/19 08:26:52;;;;;;;7.18;4.43;;;;;;;;;;6243379;28;20045;-80
2023/04/19 08:29:54;;;;;;;7.00;4.20;;;;;;;;;;6239581;28;20123;-79
2023/04/19 08:32:56;;;;;;;7.97;4.75;;;;;;;;;;6238386;28;20136;-81
2023/04/19 08:35:58;;;;;;;7.82;4.60;;;;;;;;;;6219998;28;20076;-81
2023/04/19 08:38:59;;;;;;;6.78;4.13;;;;;;;;;;6236866;28;20047;-81
2023/04/19 08:42:11;;;;;;;6.95;4.20;;;;;;;;;;6237921;28;20431;-79
2023/04/19 08:45:33;;;;;;;8.02;4.47;;;;;;;;;;6239509;28;20050;-81
2023/04/19 08:48:35;;;;;;;8.07;5.20;;;;;;;;;;6239611;28;20106;-80
2023/04/19 08:51:37;;;;;;;6.75;4.05;;;;;;;;;;6236603;28;20051;-80
2023/04/19 08:54:41;;;;;;;4.90;3.85;;;;;;;;;;6237042;28;20041;-80
2023/04/19 08:57:42;;;;;;;7.45;4.00;;;;;;;;;;6238227;28;20064;-81
2023/04/19 09:00:44;;;;;;;6.32;3.80;;;;;;;;;;6241850;28;20513;-83
2023/04/19 09:03:45;;;;;;;7.00;4.32;;;;;;;;;;6237193;28;20082;-80
2023/04/19 09:06:59;;;;;;;7.32;4.10;;;;;;;;;;6238311;28;20041;-80
2023/04/19 09:10:06;;;;;;;6.88;3.75;;;;;;;;;;6252129;28;20549;-79
2023/04/19 09:13:08;;;;;;;4.55;3.53;;;;;;;;;;6236743;28;20132;-80
2023/04/19 09:16:25;;;;;;;4.60;3.50;;;;;;;;;;6236736;28;20058;-81
2023/04/19 09:19:44;;;;;;;5.15;3.92;;;;;;;;;;6243276;28;20092;-80
2023/04/19 09:23:06;;;;;;;6.00;3.67;;;;;;;;;;6235830;28;20036;-79
2023/04/19 09:26:12;;;;;;;6.10;3.72;;;;;;;;;;6228378;28;20041;-79
2023/04/19 09:29:17;;;;;;;4.57;3.33;;;;;;;;;;6253734;28;20095;-81
2023/04/19 09:32:19;;;;;;;4.60;3.40;;;;;;;;;;6249950;28;20046;-80
2023/04/19 09:35:42;;;;;;;5.95;3.42;;;;;;;;;;6235537;28;20049;-79
2023/04/19 09:38:50;;;;;;;4.13;3.40;;;;;;;;;;6230746;28;20038;-79
2023/04/19 09:41:53;;;;;;;7.00;3.60;;;;;;;;;;6246701;28;20090;-80
2023/04/19 09:44:58;;;;;;;5.87;3.03;;;;;;;;;;6234321;28;20041;-78
2023/04/19 09:48:06;;;;;;;4.72;3.30;;;;;;;;;;6233836;28;20451;-79
2023/04/19 09:51:09;;;;;;;5.25;3.50;;;;;;;;;;6234371;28;20053;-80
2023/04/19 09:54:16;;;;;;;6.15;3.50;;;;;;;;;;6246100;28;20459;-81
2023/04/19 09:57:18;;;;;;;4.32;3.15;;;;;;;;;;6237903;28;20045;-80
2023/04/19 10:00:21;;;;;;;6.53;3.33;;;;;;;;;;6226978;28;20041;-80
2023/04/19 10:03:28;;;;;;;5.35;2.72;;;;;;;;;;6247150;28;20049;-81
2023/04/19 10:06:31;;;;;;;5.82;3.03;;;;;;;;;;6232143;28;20127;-80
2023/04/19 10:09:56;;;;;;;3.20;2.47;;;;;;;;;;6232839;28;20737;-78
2023/04/19 10:13:15;;;;;;;3.67;2.55;;;;;;;;;;6235125;28;20444;-78
2023/04/19 10:16:23;;;;;;;5.18;3.17;;;;;;;;;;6227742;28;20092;-81
2023/04/19 10:19:27;;;;;;;4.60;3.20;;;;;;;;;;6235151;28;20164;-78
2023/04/19 10:22:28;;;;;;;6.05;3.50;;;;;;;;;;6234846;28;20041;-81
2023/04/19 10:25:30;;;;;;;5.53;3.10;;;;;;;;;;6233112;28;20783;-80
2023/04/19 10:28:34;;;;;;;4.25;3.05;;;;;;;;;;6238217;28;20055;-79
2023/04/19 10:31:39;;;;;;;4.68;3.20;;;;;;;;;;6235644;28;20514;-80
2023/04/19 10:34:41;;;;;;;3.83;2.67;;;;;;;;;;6229868;28;20422;-80
2023/04/19 10:38:11;;;;;;;4.25;2.95;;;;;;;;;;6223076;28;20048;-78
2023/04/19 10:41:14;;;;;;;5.45;2.70;;;;;;;;;;6232736;28;20063;-78
2023/04/19 10:44:18;;;;;;;4.40;2.60;;;;;;;;;;6234486;28;20699;-79
2023/04/19 10:47:44;;;;;;;3.72;2.47;;;;;;;;;;6235542;28;20057;-79
2023/04/19 10:51:06;;;;;;;5.00;3.17;;;;;;;;;;6234670;28;20469;-78
2023/04/19 10:54:26;;;;;;;3.78;2.90;;;;;;;;;;6233401;28;20124;-79
2023/04/19 10:57:47;;;;;;;3.67;2.45;;;;;;;;;;6232145;28;20066;-81
2023/04/19 11:00:49;;;;;;;4.15;2.22;;;;;;;;;;6249457;28;20542;-78
2023/04/19 11:03:51;;;;;;;3.95;2.47;;;;;;;;;;6237022;28;20051;-81
2023/04/19 11:06:52;;;;;;;3.50;2.03;;;;;;;;;;6234352;28;20415;-81
2023/04/19 11:09:54;;;;;;;3.17;2.08;;;;;;;;;;6231642;28;20388;-80
2023/04/19 11:12:57;;;;;;;5.00;2.55;;;;;;;;;;6235832;28;20045;-78
2023/04/19 11:15:58;;;;;;;2.60;2.17;;;;;;;;;;6228947;28;20053;-77
2023/04/19 11:19:00;;;;;;;5.18;2.17;;;;;;;;;;6230457;28;20069;-77
2023/04/19 11:22:01;;;;;;;4.60;2.30;;;;;;;;;;6226670;28;20067;-77
2023/04/19 11:25:07;;;;;;;4.97;2.55;;;;;;;;;;6238895;28;20040;-78
2023/04/19 11:28:16;;;;;;;4.78;2.80;;;;;;;;;;6225920;28;20041;-78
2023/04/19 11:31:18;;;;;;;2.78;2.17;;;;;;;;;;6230901;28;20526;-79
2023/04/19 11:34:23;;;;;;;4.55;2.80;;;;;;;;;;6244258;28;20044;-78
2023/04/19 11:37:31;;;;;;;3.08;2.17;;;;;;;;;;6224695;28;20065;-79
2023/04/19 11:40:36;;;;;;;5.53;2.30;;;;;;;;;;6231892;28;20042;-79
2023/04/19 11:43:38;;;;;;;3.10;2.25;;;;;;;;;;6223053;28;20049;-79
2023/04/19 11:46:40;;;;;;;3.78;2.40;;;;;;;;;;6228224;28;20499;-81
2023/04/19 11:49:41;;;;;;;2.95;1.90;;;;;;;;;;6235704;28;20090;-79
2023/04/19 11:52:48;;;;;;;3.00;1.88;;;;;;;;;;6231054;28;20626;-80
2023/04/19 11:55:50;;;;;;;2.80;1.75;;;;;;;;;;6216483;28;20539;-79
2023/04/19 11:58:56;;;;;;;4.28;2.00;;;;;;;;;;6257115;28;20072;-80
2023/04/19 12:02:09;;;;;;;2.22;1.50;;;;;;;;;;6246350;28;20436;-78
2023/04/19 12:05:14;;;;;;;2.15;1.48;;;;;;;;;;6252337;28;20072;-78
2023/04/19 12:08:15;;;;;;;2.30;1.33;;;;;;;;;;6239470;28;20057;-79
2023/04/19 12:11:22;;;;;;;3.95;2.30;;;;;;;;;;6243069;28;20049;-79
2023/04/19 12:14:25;;;;;;;3.05;1.60;;;;;;;;;;6240469;28;20068;-78
2023/04/19 12:17:27;;;;;;;2.30;1.38;;;;;;;;;;6237645;28;20045;-77
2023/04/19 12:20:33;;;;;;;2.30;1.50;;;;;;;;;;6240682;28;20053;-80
2023/04/19 12:23:35;;;;;;;3.25;1.67;;;;;;;;;;6234516;28;20053;-76
2023/04/19 12:26:52;;;;;;;2.63;1.38;;;;;;;;;;6236914;28;20621;-78
2023/04/19 12:29:56;;;;;;;2.53;1.30;;;;;;;;;;6237048;28;20037;-77
2023/04/19 12:32:58;;;;;;;1.70;1.42;;;;;;;;;;6236193;28;20087;-78
2023/04/19 12:36:00;;;;;;;1.70;1.10;;;;;;;;;;6239729;28;20396;-77
2023/04/19 12:39:02;;;;;;;1.48;1.38;;;;;;;;;;6259173;28;20057;-78
2023/04/19 12:42:05;;;;;;;2.07;1.20;;;;;;;;;;6252401;28;20045;-78
2023/04/19 12:45:07;;;;;;;2.78;1.55;;;;;;;;;;6240538;28;20045;-79
2023/04/19 12:48:08;;;;;;;2.00;1.20;;;;;;;;;;6235935;28;20089;-79
2023/04/19 12:51:10;;;;;;;2.33;1.50;;;;;;;;;;6250920;28;20053;-79
2023/04/19 12:54:12;;;;;;;2.17;1.30;;;;;;;;;;6238349;28;20569;-79
2023/04/19 12:57:14;;;;;;;1.98;1.30;;;;;;;;;;6239993;28;20462;-79
2023/04/19 13:00:16;;;;;;;1.42;1.15;;;;;;;;;;6235707;28;20045;-79
2023/04/19 13:03:17;;;;;;;2.28;1.58;;;;;;;;;;6249666;28;20519;-77
2023/04/19 13:06:20;;;;;;;1.40;1.30;;;;;;;;;;6235496;28;20124;-78
2023/04/19 13:09:21;;;;;;;1.55;1.17;;;;;;;;;;6235990;28;20041;-78
2023/04/19 13:12:23;;;;;;;3.05;1.65;;;;;;;;;;6255569;28;20041;-78
2023/04/19 13:15:25;;;;;;;2.10;1.60;;;;;;;;;;6232052;28;20046;-79
2023/04/19 13:18:26;;;;;;;2.35;1.40;;;;;;;;;;6251199;28;20187;-78
2023/04/19 13:21:31;;;;;;;2.22;1.65;;;;;;;;;;6205779;28;20550;-79
2023/04/19 13:24:32;;;;;;;2.90;1.70;;;;;;;;;;6234205;28;20042;-80
2023/04/19 13:27:34;;;;;;;2.65;1.80;;;;;;;;;;6232234;28;20044;-78
2023/04/19 13:30:36;;;;;;;2.78;1.83;;;;;;;;;;6236432;28;20437;-78
2023/04/19 13:33:37;;;;;;;3.83;1.65;;;;;;;;;;6238496;28;20208;-77
2023/04/19 13:36:40;;;;;;;2.25;1.63;;;;;;;;;;6237714;28;20073;-78
2023/04/19 13:39:42;;;;;;;2.40;1.73;;;;;;;;;;6234696;28;20056;-78
2023/04/19 13:42:43;;;;;;;3.80;1.77;;;;;;;;;;6234892;28;20463;-76
2023/04/19 13:45:45;;;;;;;2.28;1.33;;;;;;;;;;6235899;28;20049;-77
2023/04/19 13:48:47;;;;;;;4.22;1.60;;;;;;;;;;6250318;28;20055;-78
2023/04/19 13:51:49;;;;;;;2.58;1.63;;;;;;;;;;6233341;28;20053;-78
2023/04/19 13:54:51;;;;;;;;;;;;;;;;;;6241956;28;20044;-78
2023/04/19 13:57:53;;;;;;;1.83;1.33;;;;;;;;;;6252169;28;20063;-79
2023/04/19 14:00:54;;;;;;;3.15;2.00;;;;;;;;;;6238324;28;20049;-79
2023/04/19 14:03:56;;;;;;;2.90;1.75;;;;;;;;;;6239976;28;20050;-78
2023/04/19 14:06:58;;;;;;;3.80;1.98;;;;;;;;;;6236799;28;20056;-77
2023/04/19 14:10:00;;;;;;;2.83;1.80;;;;;;;;;;6237613;28;20052;-78
2023/04/19 14:13:02;;;;;;;2.35;1.60;;;;;;;;;;6236657;28;20725;-77
2023/04/19 14:16:03;;;;;;;2.95;2.00;;;;;;;;;;6214414;28;20116;-78
2023/04/19 14:19:07;;;;;;;2.38;1.73;;;;;;;;;;6250540;28;20088;-77
2023/04/19 14:22:09;;;;;;;2.40;1.90;;;;;;;;;;6233808;28;20038;-77
2023/04/19 14:25:13;;;;;;;3.00;1.90;;;;;;;;;;6238381;28;20068;-79
2023/04/19 14:28:15;;;;;;;4.03;2.03;;;;;;;;;;6240045;28;20056;-77
2023/04/19 14:31:17;;;;;;;4.65;2.20;;;;;;;;;;6234349;28;20418;-77
2023/04/19 14:34:19;;;;;;;3.47;1.98;;;;;;;;;;6212272;28;20053;-79
2023/04/19 14:37:22;;;;;;;3.38;2.17;;;;;;;;;;6235235;28;20125;-78
2023/04/19 14:40:24;;;;;;;3.38;1.90;;;;;;;;;;6235115;28;20084;-79
2023/04/19 14:43:25;;;;;;;3.00;2.10;;;;;;;;;;6231667;28;20487;-79
2023/04/19 14:46:27;;;;;;;3.05;2.30;;;;;;;;;;6233428;28;20044;-79
2023/04/19 14:49:29;;;;;;;5.03;2.72;;;;;;;;;;6207425;28;20496;-78
2023/04/19 14:52:30;;;;;;;5.38;2.42;;;;;;;;;;6220713;28;20038;-79
2023/04/19 14:55:32;;;;;;;5.75;2.67;;;;;;;;;;6211809;28;20054;-78
2023/04/19 14:58:34;;;;;;;6.47;2.47;;;;;;;;;;6223037;28;20064;-78
2023/04/19 15:01:35;;;;;;;3.22;2.30;;;;;;;;;;6252841;28;20096;-76
2023/04/19 15:04:37;;;;;;;3.30;2.40;;;;;;;;;;6251533;28;20047;-76
2023/04/19 15:07:42;;;;;;;4.38;2.58;;;;;;;;;;6247339;28;20635;-79
2023/04/19 15:10:43;;;;;;;2.97;2.40;;;;;;;;;;6249500;28;20041;-77
2023/04/19 15:13:45;;;;;;;3.78;2.13;;;;;;;;;;6227613;28;20257;-79
2023/04/19 15:16:46;;;;;;;4.43;2.28;;;;;;;;;;6246180;28;20101;-78
2023/04/19 15:19:48;;;;;;;3.45;2.45;;;;;;;;;;6241893;28;20049;-78
2023/04/19 15:22:50;;;;;;;2.58;2.30;;;;;;;;;;6239144;28;20050;-78
2023/04/19 15:25:52;;;;;;;4.28;2.60;;;;;;;;;;6232436;28;20045;-77
2023/04/19 15:28:54;;;;;;;3.58;2.30;;;;;;;;;;6231204;28;20049;-79
2023/04/19 15:31:56;;;;;;;2.10;1.90;;;;;;;;;;6210209;28;20053;-77
2023/04/19 15:34:58;;;;;;;2.45;2.00;;;;;;;;;;6208852;28;20045;-78
2023/04/19 15:37:59;;;;;;;3.47;2.00;;;;;;;;;;6222119;28;20052;-79
2023/04/19 15:41:01;;;;;;;3.80;1.83;;;;;;;;;;6213441;28;20109;-78
2023/04/19 15:44:03;;;;;;;6.47;2.10;;;;;;;;;;6226666;28;20038;-77
2023/04/19 15:47:04;;;;;;;3.78;2.40;;;;;;;;;;6231964;28;21396;-77
2023/04/19 15:50:06;;;;;;;3.60;2.38;;;;;;;;;;6219968;28;20049;-77
2023/04/19 15:53:08;;;;;;;3.40;2.08;;;;;;;;;;6247614;28;20168;-79
2023/04/19 15:56:10;;;;;;;3.65;2.00;;;;;;;;;;6247350;28;20172;-80
2023/04/19 15:59:12;;;;;;;3.38;2.20;;;;;;;;;;6229491;28;20053;-79
2023/04/19 16:02:13;;;;;;;2.92;1.90;;;;;;;;;;6232241;28;20069;-78
2023/04/19 16:05:15;;;;;;;3.28;1.98;;;;;;;;;;6232860;28;20667;-79
2023/04/19 16:08:20;;;;;;;3.72;1.90;;;;;;;;;;6233063;28;20045;-79
2023/04/19 16:11:22;;;;;;;3.83;1.90;;;;;;;;;;6232764;28;21397;-79
2023/04/19 16:14:23;;;;;;;3.25;1.80;;;;;;;;;;6232807;28;20045;-80
2023/04/19 16:17:25;;;;;;;3.95;2.05;;;;;;;;;;6221388;28;20046;-80
2023/04/19 16:20:27;;;;;;;4.18;2.00;;;;;;;;;;6224408;28;20045;-79
2023/04/19 16:23:28;;;;;;;2.13;1.80;;;;;;;;;;6209394;28;20049;-79
2023/04/19 16:26:30;;;;;;;2.50;2.10;;;;;;;;;;6220838;28;20100;-78
2023/04/19 16:29:32;;;;;;;1.90;1.70;;;;;;;;;;6211033;28;20069;-77
2023/04/19 16:32:33;;;;;;;4.32;2.50;;;;;;;;;;6228716;28;20083;-79
2023/04/19 16:35:36;;;;;;;;;;;;;;;;;;6236181;28;20046;-79
2023/04/19 16:38:38;;;;;;;2.78;1.90;;;;;;;;;;6235019;28;20311;-78
2023/04/19 16:41:39;;;;;;;2.60;1.70;;;;;;;;;;6251087;28;20046;-78
2023/04/19 16:44:41;;;;;;;3.60;2.50;;;;;;;;;;6220994;28;20045;-77
2023/04/19 16:47:44;;;;;;;2.42;1.80;;;;;;;;;;6235575;28;20056;-78
2023/04/19 16:50:48;;;;;;;3.63;2.10;;;;;;;;;;6221714;28;20096;-75
2023/04/19 16:53:49;;;;;;;;;;;;;;;;;;6214928;28;20041;-79
2023/04/19 16:56:53;;;;;;;3.78;2.53;;;;;;;;;;6244019;28;19921;-78
2023/04/19 16:59:57;;;;;;;4.55;2.45;;;;;;;;;;6241104;28;20037;-77
2023/04/19 17:03:00;;;;;;;3.13;2.10;;;;;;;;;;6245701;28;20113;-77
2023/04/19 17:06:03;;;;;;;;;;;;;;;;;;6238007;28;20176;-78
2023/04/19 17:09:06;;;;;;;2.67;2.03;;;;;;;;;;6233757;28;19917;-77
2023/04/19 17:12:09;;;;;;;3.08;2.42;;;;;;;;;;6233868;28;20087;-76
2023/04/19 17:15:14;;;;;;;3.60;2.58;;;;;;;;;;6236692;28;20061;-78
2023/04/19 17:18:15;;;;;;;2.97;2.28;;;;;;;;;;6244067;28;20124;-77
2023/04/19 17:21:17;;;;;;;2.80;2.05;;;;;;;;;;6243696;28;20053;-81
2023/04/19 17:24:19;;;;;;;3.42;2.13;;;;;;;;;;6236193;28;20049;-78
2023/04/19 17:27:20;;;;;;;2.30;2.10;;;;;;;;;;6243791;28;20045;-79
2023/04/19 17:30:22;;;;;;;5.45;2.17;;;;;;;;;;6248058;28;20073;-79
2023/04/19 17:33:24;;;;;;;2.58;1.90;;;;;;;;;;6227495;28;20060;-77
2023/04/19 17:36:25;;;;;;;3.13;2.30;;;;;;;;;;6218965;28;20967;-78
2023/04/19 17:39:27;;;;;;;6.15;2.47;;;;;;;;;;6201248;28;20045;-80
2023/04/19 17:42:29;;;;;;;4.00;2.42;;;;;;;;;;6238069;28;20099;-80
2023/04/19 17:45:31;;;;;;;3.42;2.10;;;;;;;;;;6235755;28;20092;-79
2023/04/19 17:48:33;;;;;;;3.55;1.92;;;;;;;;;;6217836;28;20046;-79
2023/04/19 17:51:34;;;;;;;3.40;2.33;;;;;;;;;;6234544;28;20041;-78
2023/04/19 17:54:37;;;;;;;4.55;2.30;;;;;;;;;;6231401;28;20072;-80
2023/04/19 17:57:39;;;;;;;3.50;2.30;;;;;;;;;;6239202;28;20041;-78
2023/04/19 18:00:42;;;;;;;4.40;2.50;;;;;;;;;;6241015;28;20049;-79
2023/04/19 18:03:45;;;;;;;3.58;2.22;;;;;;;;;;6237373;28;20041;-79
2023/04/19 18:06:52;;;;;;;3.25;2.30;;;;;;;;;;6236732;28;20037;-79
2023/04/19 18:09:54;;;;;;;3.00;2.13;;;;;;;;;;6230796;28;20042;-79
2023/04/19 18:12:56;;;;;;;3.95;2.10;;;;;;;;;;6228949;28;20143;-79
2023/04/19 18:15:58;;;;;;;4.15;2.58;;;;;;;;;;6236005;28;20049;-78